Latest Weather Observations for Khancoban

IDN60801

Issued at 3:32 pm EDT Thursday 19 January 2017 (issued every 30 minutes, with the page automatically refreshed every 10 minutes)

About weather observations | Map of weather stations | Latest weather observations for NSW | Other Formats
Station Details ID: 072162 Name: KHANCOBAN AWS Lat: -36.23 Lon: 148.14 Height: 339.3 m
Data from the previous 72 hours. | See also: Recent months at Khancoban
Date/Time
EDT
Temp
°C
App
Temp
°C
Dew
Point
°C
Rel
Hum
%
Delta-T
°C
Wind Press
QNH
hPa
Press
MSL
hPa
Rain since
9am
mm
Dir  Spd
km/h
Gust
km/h
Spd
kts
Gust
kts
19/03:30pm 30.0 29.1 10.5 30 11.3 ESE 6 11 3 6 1008.1 1006.5 0.0
19/03:00pm 29.7 28.1 10.3 30 11.2 S 9 15 5 8 1008.6 1007.0 0.0
19/02:30pm 28.5 27.3 11.6 35 9.9 S 9 15 5 8 1009.0 1007.3 0.0
19/02:00pm 27.6 26.4 11.6 37 9.3 S 9 17 5 9 1009.6 1008.0 0.0
19/01:30pm 27.9 27.0 13.8 42 8.5 SW 11 17 6 9 1010.0 1008.4 0.0
19/01:00pm 27.1 27.1 14.1 44 7.9 WNW 7 20 4 11 1010.6 1009.0 0.0
19/12:30pm 26.0 25.4 13.5 46 7.5 WSW 9 20 5 11 1010.9 1009.3 0.0
19/12:00pm 24.8 24.4 13.0 47 7.0 WSW 7 17 4 9 1011.3 1009.7 0.0
19/11:30am 23.8 23.1 13.1 51 6.3 SW 9 13 5 7 1011.7 1010.1 0.0
19/11:00am 22.9 22.7 13.1 54 5.7 SSE 6 11 3 6 1012.1 1010.5 0.0
19/10:30am 21.1 20.7 12.5 58 4.9 SSW 6 7 3 4 1012.5 1010.9 0.0
19/10:00am 19.9 19.4 12.2 61 4.4 S 6 7 3 4 1012.7 1011.1 0.0
19/09:30am 18.6 18.1 11.9 65 3.8 NE 6 9 3 5 1013.0 1011.4 0.0
19/09:00am 17.6 17.9 12.1 70 3.1 NE 2 7 1 4 1013.3 1011.7 0.0
19/08:30am 16.2 16.4 11.8 75 2.4 SE 2 6 1 3 1013.7 1012.1 0.0
19/08:00am 15.5 16.2 12.1 80 1.9 CALM 0 6 0 3 1013.8 1012.2 0.0
19/07:30am 13.1 13.2 12.6 97 0.3 ENE 4 6 2 3 1013.6 1012.0 0.0
19/07:00am 11.3 11.7 11.1 99 0.1 CALM 0 4 0 2 1013.5 1011.9 0.0
19/06:30am 11.0 10.8 10.5 97 0.3 SSE 2 7 1 4 1013.2 1011.6 0.0
19/06:00am 11.4 10.9 10.6 95 0.4 SSE 4 7 2 4 1012.8 1011.2 0.0
19/05:30am 11.3 11.4 10.2 93 0.6 CALM 0 0 0 0 1012.5 1010.9 0.0
19/05:00am 11.4 11.5 10.3 93 0.6 CALM 0 0 0 0 1012.3 1010.7 0.0
19/04:30am 12.2 11.7 10.6 90 0.8 E 4 9 2 5 1012.2 1010.6 0.0
19/04:00am 12.5 12.3 10.6 88 1.0 ENE 2 7 1 4 1012.2 1010.6 0.0
19/03:30am 13.2 13.4 10.7 85 1.3 CALM 0 0 0 0 1012.3 1010.7 0.0
19/03:00am 12.9 13.1 10.6 86 1.2 CALM 0 6 0 3 1012.5 1010.9 0.0
19/02:30am 12.8 12.7 10.9 88 1.0 ESE 2 9 1 5 1012.8 1011.2 0.0
19/02:00am 13.4 12.6 11.1 86 1.2 SSE 6 7 3 4 1012.9 1011.3 0.0
19/01:30am 13.9 13.1 10.9 82 1.6 NE 6 7 3 4 1013.0 1011.4 0.0
19/01:00am 13.9 14.1 10.5 80 1.8 CALM 0 0 0 0 1012.9 1011.3 0.0
19/12:30am 15.1 14.4 11.5 79 2.0 SE 6 9 3 5 1012.8 1011.2 0.0
19/12:00am 16.4 16.3 12.2 76 2.3 ESE 4 9 2 5 1012.7 1011.1 0.0
 
Date/Time
EDT
Temp
°C
App
Temp
°C
Dew
Point
°C
Rel
Hum
%
Delta-T
°C
Wind Press
QNH
hPa
Press
MSL
hPa
Rain since
9am
mm
Dir  Spd
km/h
Gust
km/h
Spd
kts
Gust
kts
18/11:30pm 15.9 16.4 11.7 76 2.3 CALM 0 0 0 0 1012.7 1011.1 0.0
18/11:00pm 16.7 16.9 11.8 73 2.7 ESE 2 7 1 4 1012.7 1011.1 0.0
18/10:30pm 18.0 17.5 12.0 68 3.4 SSE 6 7 3 4 1012.3 1010.7 0.0
18/10:00pm 18.8 19.3 11.6 63 4.0 CALM 0 0 0 0 1012.1 1010.5 0.0
18/09:30pm 18.6 17.9 11.4 63 4.0 SSE 6 9 3 5 1011.7 1010.1 0.0
18/09:00pm 21.1 19.2 11.7 55 5.3 S 13 17 7 9 1011.3 1009.7 0.0
18/08:30pm 22.7 22.3 12.3 52 6.0 S 6 11 3 6 1010.7 1009.1 0.0
18/08:00pm 24.4 22.4 12.7 48 6.9 SW 15 26 8 14 1009.7 1008.1 0.0
18/07:30pm 28.4 28.5 11.5 35 9.9 S 2 7 1 4 1009.0 1007.3 0.0
18/07:00pm 28.4 27.5 12.7 38 9.4 S 9 11 5 6 1008.7 1007.1 0.0
18/06:30pm 28.6 26.9 12.5 37 9.6 SSW 13 15 7 8 1008.5 1006.9 0.0
18/06:00pm 29.4 29.0 14.0 39 9.4 NNW 9 11 5 6 1007.9 1006.3 0.0
18/05:30pm 27.2 27.7 14.9 47 7.5 NE 6 11 3 6 1008.3 1006.7 0.0
18/05:00pm 27.2 26.4 13.9 44 8.0 ENE 11 15 6 8 1008.6 1007.0 0.0
18/04:30pm 27.3 27.6 15.0 47 7.5 NNE 7 11 4 6 1009.1 1007.4 0.0
18/04:00pm 26.6 27.1 15.6 50 6.8 NNE 7 9 4 5 1009.4 1007.8 0.0
18/03:30pm 26.5 26.2 15.5 50 6.8 NNE 11 15 6 8 1009.6 1008.0 0.0
18/03:00pm 25.5 27.5 16.9 59 5.4 SSE 2 6 1 3 1010.1 1008.5 0.0
18/02:30pm 25.3 26.9 17.0 60 5.2 SE 4 11 2 6 1010.0 1008.4 0.0
18/02:00pm 24.7 25.5 17.2 63 4.7 NNW 9 11 5 6 1010.3 1008.7 0.0
18/01:30pm 24.9 25.7 16.3 59 5.3 N 7 17 4 9 1010.1 1008.5 0.0
18/01:00pm 24.5 25.9 15.4 57 5.6 SSE 2 7 1 4 1010.3 1008.7 0.0
18/12:30pm 24.8 24.6 14.6 53 6.2 SSW 9 15 5 8 1010.0 1008.4 0.0
18/12:00pm 24.2 24.4 14.6 55 5.8 SSW 7 9 4 5 1010.1 1008.5 0.0
18/11:30am 24.4 25.6 13.9 52 6.3 CALM 0 6 0 3 1009.9 1008.3 0.0
18/11:00am 24.1 24.6 13.9 53 6.1 NE 4 7 2 4 1009.8 1008.2 0.0
18/10:30am 23.7 23.9 14.1 55 5.7 NW 6 11 3 6 1010.1 1008.5 0.0
18/10:00am 23.7 23.8 14.4 56 5.6 SSW 7 9 4 5 1009.1 1007.4 0.0
18/09:30am 23.6 23.6 13.5 53 6.0 N 6 9 3 5 1008.3 1006.7 0.0
18/09:00am 22.5 23.0 14.1 59 5.0 NNW 4 9 2 5 1008.3 1006.7 0.0
18/08:30am 21.3 21.6 14.5 65 4.0 NW 6 9 3 5 1008.3 1006.7 0.0
18/08:00am 20.2 21.6 14.3 69 3.5 CALM 0 0 0 0 1008.3 1006.7 0.0
18/07:30am 17.5 18.5 14.4 82 1.8 NNE 2 7 1 4 1008.0 1006.4 0.0
18/07:00am 16.3 15.9 14.0 86 1.3 S 9 11 5 6 1008.1 1006.5 0.0
18/06:30am 15.1 15.2 12.6 85 1.4 SW 4 7 2 4 1008.2 1006.6 0.0
18/06:00am 14.9 15.3 12.6 86 1.3 ENE 2 7 1 4 1007.9 1006.3 0.0
18/05:30am 15.1 14.8 12.8 86 1.3 SE 6 7 3 4 1007.4 1005.8 0.0
18/05:00am 15.9 17.0 13.4 85 1.4 CALM 0 0 0 0 1006.8 1005.2 0.0
18/04:30am 16.0 16.5 12.9 82 1.7 S 2 7 1 4 1006.5 1004.8 0.0
18/04:00am 17.0 17.2 14.8 87 1.3 NE 7 11 4 6 1006.3 1004.6 0.0
18/03:30am 16.2 16.6 13.7 85 1.4 SSW 4 7 2 4 1006.2 1004.5 0.0
18/03:00am 16.9 18.2 14.0 83 1.7 CALM 0 0 0 0 1006.3 1004.6 0.0
18/02:30am 17.2 18.4 13.9 81 1.9 CALM 0 0 0 0 1006.4 1004.7 0.0
18/02:00am 18.4 19.2 14.7 79 2.2 E 4 7 2 4 1006.5 1004.8 0.0
18/01:30am 18.4 19.0 14.3 77 2.4 NNE 4 9 2 5 1006.7 1005.1 0.0
18/01:00am 19.1 19.3 14.8 76 2.6 E 7 9 4 5 1007.1 1005.5 0.0
18/12:30am 19.3 19.8 15.0 76 2.6 ENE 6 9 3 5 1007.4 1005.8 0.0
18/12:00am 19.7 20.2 14.9 74 2.9 NE 6 11 3 6 1007.6 1006.0 0.0
 
Date/Time
EDT
Temp
°C
App
Temp
°C
Dew
Point
°C
Rel
Hum
%
Delta-T
°C
Wind Press
QNH
hPa
Press
MSL
hPa
Rain since
9am
mm
Dir  Spd
km/h
Gust
km/h
Spd
kts
Gust
kts
17/11:30pm 19.8 20.9 14.6 72 3.1 SSE 2 9 1 5 1007.8 1006.2 0.0
17/11:00pm 20.3 21.0 15.5 74 2.9 SE 6 7 3 4 1007.8 1006.2 0.0
17/10:30pm 21.9 23.2 16.2 70 3.5 ESE 4 9 2 5 1007.7 1006.1 0.0
17/10:00pm 22.2 23.6 15.3 65 4.2 N 2 7 1 4 1007.7 1006.1 0.0
17/09:30pm 23.3 23.0 15.4 61 4.8 S 11 13 6 7 1007.4 1005.8 0.0
17/09:00pm 25.2 26.9 16.1 57 5.7 SE 2 6 1 3 1007.4 1005.8 0.0
17/08:30pm 27.3 28.7 15.3 48 7.4 NNE 2 7 1 4 1007.2 1005.6 0.0
17/08:00pm 31.3 31.9 15.3 38 10.0 WNW 6 11 3 6 1007.1 1005.5 0.0
17/07:30pm 34.4 35.6 15.8 33 11.8 W 4 7 2 4 1007.0 1005.4 0.0
17/07:00pm 35.7 35.4 13.2 26 13.9 NNW 7 15 4 8 1006.8 1005.2 0.0
17/06:30pm 36.5 36.0 12.0 23 14.9 SW 6 9 3 5 1007.0 1005.4 0.0
17/06:00pm 36.2 35.8 11.1 22 15.1 ESE 4 11 2 6 1007.3 1005.7 0.0
17/05:30pm 36.3 35.2 11.9 23 14.8 S 9 13 5 7 1007.6 1006.0 0.0
17/05:00pm 36.7 35.3 12.2 23 15.0 ENE 11 19 6 10 1007.9 1006.3 0.0
17/04:30pm 36.0 35.0 12.3 24 14.4 ENE 9 13 5 7 1008.3 1006.7 0.0
17/04:00pm 35.5 34.6 11.2 23 14.6 E 7 9 4 5 1008.8 1007.2 0.0
17/03:30pm 36.1 35.5 12.3 24 14.5 WSW 7 15 4 8 1009.2 1007.5 0.0
17/03:00pm 35.0 33.9 12.0 25 13.9 SSE 9 19 5 10 1009.6 1008.0 0.0
17/02:30pm 35.1 33.9 12.7 26 13.7 S 11 17 6 9 1010.1 1008.5 0.0
17/02:00pm 34.7 33.2 11.8 25 13.8 NW 11 19 6 10 1010.7 1009.1 0.0
17/01:30pm 33.6 32.7 11.5 26 13.2 WNW 7 15 4 8 1011.4 1009.8 0.0
17/01:00pm 32.4 32.4 14.1 33 11.3 SSW 7 15 4 8 1012.2 1010.6 0.0
17/12:30pm 31.2 30.9 14.4 36 10.4 S 9 13 5 7 1012.7 1011.1 0.0
17/12:00pm 30.4 30.7 14.5 38 9.8 WSW 6 9 3 5 1013.3 1011.7 0.0
17/11:30am 28.7 29.1 13.8 40 9.0 SW 4 11 2 6 1013.9 1012.3 0.0
17/11:00am 26.7 26.4 14.5 47 7.4 W 9 15 5 8 1014.1 1012.5 0.0
17/10:30am 25.2 26.6 15.5 55 6.0 NNE 2 7 1 4 1014.3 1012.7 0.0
17/10:00am 23.3 24.5 14.8 59 5.1 N 2 7 1 4 1014.9 1013.4 0.0
17/09:30am 21.7 22.1 14.8 65 4.1 S 6 9 3 5 1015.2 1013.6 0.0
17/09:00am 19.7 20.5 14.9 74 2.9 N 4 7 2 4 1015.3 1013.7 0.0
17/08:30am 17.0 17.8 13.7 81 1.9 N 2 7 1 4 1015.6 1014.0 0.0
17/08:00am 15.8 16.9 13.6 87 1.3 CALM 0 0 0 0 1015.2 1013.6 0.0
17/07:30am 15.0 15.1 13.9 93 0.6 N 6 7 3 4 1014.9 1013.4 0.0
17/07:00am 14.0 14.8 13.7 98 0.2 NNE 2 6 1 3 1014.6 1013.1 0.0
17/06:30am 13.3 13.8 12.8 97 0.3 N 2 7 1 4 1014.2 1012.6 0.0
17/06:00am 12.8 13.3 11.7 93 0.6 CALM 0 0 0 0 1014.2 1012.6 0.0
17/05:30am 12.8 13.2 11.4 91 0.8 CALM 0 0 0 0 1014.2 1012.6 0.0
17/05:00am 13.2 13.6 11.4 89 1.0 CALM 0 0 0 0 1014.0 1012.4 0.0
17/04:30am 13.1 13.5 11.3 89 1.0 CALM 0 0 0 0 1013.5 1011.9 0.0
17/04:00am 13.6 13.8 11.7 88 1.0 NE 2 6 1 3 1013.3 1011.7 0.0
17/03:30am 13.3 12.5 11.2 87 1.1 N 6 9 3 5 1013.5 1011.9 0.0
17/03:00am 13.6 14.0 11.3 86 1.2 CALM 0 0 0 0 1013.6 1012.0 0.0
17/02:30am 14.0 14.4 11.3 84 1.5 CALM 0 6 0 3 1013.8 1012.2 0.0
17/02:00am 14.5 14.9 11.3 81 1.7 CALM 0 0 0 0 1014.0 1012.4 0.0
17/01:30am 15.5 15.8 12.1 80 1.9 SSE 2 6 1 3 1014.0 1012.4 0.0
17/01:00am 15.9 15.4 12.1 78 2.1 S 6 9 3 5 1014.0 1012.4 0.0
17/12:30am 16.0 16.8 12.6 80 1.9 CALM 0 0 0 0 1014.1 1012.5 0.0
17/12:00am 16.1 16.7 11.9 76 2.3 CALM 0 0 0 0 1014.1 1012.5 0.0
 
Date/Time
EDT
Temp
°C
App
Temp
°C
Dew
Point
°C
Rel
Hum
%
Delta-T
°C
Wind Press
QNH
hPa
Press
MSL
hPa
Rain since
9am
mm
Dir  Spd
km/h
Gust
km/h
Spd
kts
Gust
kts
16/11:30pm 17.1 17.3 13.0 77 2.3 NNE 4 7 2 4 1014.1 1012.5 0.0
16/11:00pm 17.6 18.4 12.5 72 2.9 CALM 0 2 0 1 1014.0 1012.4 0.0
16/10:30pm 18.3 19.4 13.4 73 2.8 CALM 0 0 0 0 1014.2 1012.6 0.0
16/10:00pm 18.6 18.5 12.1 66 3.7 SSW 4 7 2 4 1014.0 1012.4 0.0
16/09:30pm 20.4 20.3 13.4 64 4.1 ESE 6 11 3 6 1014.0 1012.4 0.0
16/09:00pm 21.7 21.3 12.5 56 5.3 NNW 6 9 3 5 1013.9 1012.3 0.0
16/08:30pm 24.1 23.2 12.7 49 6.7 SW 9 11 5 6 1013.7 1012.1 0.0
16/08:00pm 26.5 26.0 10.6 37 9.1 NNE 4 9 2 5 1013.4 1011.8 0.0
16/07:30pm 30.2 29.0 11.7 32 10.9 SSW 9 13 5 7 1013.3 1011.7 0.0
16/07:00pm 31.2 29.5 11.1 29 11.8 SSW 11 13 6 7 1013.1 1011.5 0.0
16/06:30pm 32.1 30.4 7.7 22 13.6 S 6 9 3 5 1013.0 1011.4 0.0
16/06:00pm 32.0 30.6 8.9 24 13.1 S 6 11 3 6 1013.0 1011.4 0.0
16/05:30pm 32.0 30.5 8.3 23 13.4 SW 6 13 3 7 1013.1 1011.5 0.0
16/05:00pm 31.8 30.4 8.7 24 13.1 W 6 13 3 7 1013.2 1011.6 0.0
16/04:30pm 31.1 29.5 8.2 24 12.8 SE 6 13 3 7 1013.4 1011.8 0.0
16/04:00pm 31.4 29.6 9.6 26 12.5 SSW 9 17 5 9 1013.6 1012.0 0.0

Other Formats:

Comma delimited format used in spreadsheet applications
http://www.bom.gov.au/fwo/IDN60801/IDN60801.94919.axf

JavaScript Object Notation format (JSON) in row-major order
http://www.bom.gov.au/fwo/IDN60801/IDN60801.94919.json